sensor_id;sensor_type;location;lat;lon;timestamp;P1;durP1;ratioP1;P2;durP2;ratioP2
20531;SDS011;10424;52.102;8.084;2022-11-30T00:01:56;22.77;;;10.95;;
20531;SDS011;10424;52.102;8.084;2022-11-30T00:04:23;24.40;;;11.50;;
20531;SDS011;10424;52.102;8.084;2022-11-30T00:06:50;25.00;;;11.57;;
20531;SDS011;10424;52.102;8.084;2022-11-30T00:09:21;23.83;;;11.15;;
20531;SDS011;10424;52.102;8.084;2022-11-30T00:11:48;28.40;;;12.27;;
20531;SDS011;10424;52.102;8.084;2022-11-30T00:14:16;24.85;;;11.85;;
20531;SDS011;10424;52.102;8.084;2022-11-30T00:16:43;26.60;;;11.52;;
20531;SDS011;10424;52.102;8.084;2022-11-30T00:19:12;25.85;;;11.30;;
20531;SDS011;10424;52.102;8.084;2022-11-30T00:21:39;23.55;;;10.88;;
20531;SDS011;10424;52.102;8.084;2022-11-30T00:24:06;25.95;;;12.32;;
20531;SDS011;10424;52.102;8.084;2022-11-30T00:26:34;24.75;;;11.35;;
20531;SDS011;10424;52.102;8.084;2022-11-30T00:29:01;24.67;;;11.52;;
20531;SDS011;10424;52.102;8.084;2022-11-30T00:31:28;24.20;;;12.02;;
20531;SDS011;10424;52.102;8.084;2022-11-30T00:33:56;32.90;;;13.35;;
20531;SDS011;10424;52.102;8.084;2022-11-30T00:36:24;29.90;;;12.50;;
20531;SDS011;10424;52.102;8.084;2022-11-30T00:38:51;29.75;;;13.10;;
20531;SDS011;10424;52.102;8.084;2022-11-30T00:41:19;29.25;;;12.90;;
20531;SDS011;10424;52.102;8.084;2022-11-30T00:43:46;29.90;;;13.70;;
20531;SDS011;10424;52.102;8.084;2022-11-30T00:46:14;30.77;;;13.38;;
20531;SDS011;10424;52.102;8.084;2022-11-30T00:48:41;30.25;;;13.02;;
20531;SDS011;10424;52.102;8.084;2022-11-30T00:51:09;30.23;;;12.90;;
20531;SDS011;10424;52.102;8.084;2022-11-30T00:53:38;26.75;;;12.63;;
20531;SDS011;10424;52.102;8.084;2022-11-30T00:56:06;28.08;;;12.27;;
20531;SDS011;10424;52.102;8.084;2022-11-30T00:58:33;30.90;;;12.15;;
20531;SDS011;10424;52.102;8.084;2022-11-30T01:01:00;25.55;;;11.32;;
20531;SDS011;10424;52.102;8.084;2022-11-30T01:03:28;30.50;;;12.43;;
20531;SDS011;10424;52.102;8.084;2022-11-30T01:05:59;28.35;;;11.18;;
20531;SDS011;10424;52.102;8.084;2022-11-30T01:08:30;28.65;;;11.48;;
20531;SDS011;10424;52.102;8.084;2022-11-30T01:11:04;26.88;;;11.48;;
20531;SDS011;10424;52.102;8.084;2022-11-30T01:13:31;28.10;;;11.77;;
20531;SDS011;10424;52.102;8.084;2022-11-30T01:15:59;30.73;;;11.90;;
20531;SDS011;10424;52.102;8.084;2022-11-30T01:18:26;30.13;;;11.90;;
20531;SDS011;10424;52.102;8.084;2022-11-30T01:20:53;25.55;;;10.88;;
20531;SDS011;10424;52.102;8.084;2022-11-30T01:23:21;27.42;;;11.40;;
20531;SDS011;10424;52.102;8.084;2022-11-30T01:25:54;24.23;;;10.77;;
20531;SDS011;10424;52.102;8.084;2022-11-30T01:28:22;24.85;;;11.95;;
20531;SDS011;10424;52.102;8.084;2022-11-30T01:30:56;28.38;;;11.10;;
20531;SDS011;10424;52.102;8.084;2022-11-30T01:33:24;28.05;;;11.60;;
20531;SDS011;10424;52.102;8.084;2022-11-30T01:35:58;27.00;;;10.95;;
20531;SDS011;10424;52.102;8.084;2022-11-30T01:38:25;34.75;;;12.05;;
20531;SDS011;10424;52.102;8.084;2022-11-30T01:40:53;29.98;;;12.13;;
20531;SDS011;10424;52.102;8.084;2022-11-30T01:43:20;32.28;;;12.57;;
20531;SDS011;10424;52.102;8.084;2022-11-30T01:45:49;28.75;;;11.55;;
20531;SDS011;10424;52.102;8.084;2022-11-30T01:48:16;32.58;;;12.93;;
20531;SDS011;10424;52.102;8.084;2022-11-30T01:50:43;31.08;;;12.73;;
20531;SDS011;10424;52.102;8.084;2022-11-30T01:53:11;33.15;;;12.25;;
20531;SDS011;10424;52.102;8.084;2022-11-30T01:55:38;32.33;;;12.10;;
20531;SDS011;10424;52.102;8.084;2022-11-30T01:58:07;29.73;;;11.38;;
20531;SDS011;10424;52.102;8.084;2022-11-30T02:00:36;29.42;;;12.07;;
20531;SDS011;10424;52.102;8.084;2022-11-30T02:03:06;31.92;;;12.25;;
20531;SDS011;10424;52.102;8.084;2022-11-30T02:05:35;33.00;;;12.05;;
20531;SDS011;10424;52.102;8.084;2022-11-30T02:08:04;32.75;;;12.80;;
20531;SDS011;10424;52.102;8.084;2022-11-30T02:10:32;31.55;;;12.48;;
20531;SDS011;10424;52.102;8.084;2022-11-30T02:15:44;33.58;;;12.82;;
20531;SDS011;10424;52.102;8.084;2022-11-30T02:18:15;34.28;;;12.93;;
20531;SDS011;10424;52.102;8.084;2022-11-30T02:20:48;34.35;;;13.23;;
20531;SDS011;10424;52.102;8.084;2022-11-30T02:23:26;38.63;;;13.20;;
20531;SDS011;10424;52.102;8.084;2022-11-30T02:25:57;34.22;;;13.55;;
20531;SDS011;10424;52.102;8.084;2022-11-30T02:31:15;40.33;;;14.15;;
20531;SDS011;10424;52.102;8.084;2022-11-30T02:33:44;40.22;;;14.25;;
20531;SDS011;10424;52.102;8.084;2022-11-30T02:36:12;42.47;;;14.38;;
20531;SDS011;10424;52.102;8.084;2022-11-30T02:38:40;39.33;;;14.15;;
20531;SDS011;10424;52.102;8.084;2022-11-30T02:41:08;42.40;;;14.85;;
20531;SDS011;10424;52.102;8.084;2022-11-30T02:43:35;43.38;;;15.18;;
20531;SDS011;10424;52.102;8.084;2022-11-30T02:46:04;42.10;;;15.20;;
20531;SDS011;10424;52.102;8.084;2022-11-30T02:48:36;45.60;;;14.80;;
20531;SDS011;10424;52.102;8.084;2022-11-30T02:51:06;41.92;;;14.38;;
20531;SDS011;10424;52.102;8.084;2022-11-30T02:53:35;43.58;;;15.00;;
20531;SDS011;10424;52.102;8.084;2022-11-30T02:56:03;44.75;;;15.48;;
20531;SDS011;10424;52.102;8.084;2022-11-30T02:58:30;49.30;;;15.77;;
20531;SDS011;10424;52.102;8.084;2022-11-30T03:00:58;49.95;;;15.93;;
20531;SDS011;10424;52.102;8.084;2022-11-30T03:03:25;43.47;;;15.50;;
20531;SDS011;10424;52.102;8.084;2022-11-30T03:05:53;45.88;;;15.75;;
20531;SDS011;10424;52.102;8.084;2022-11-30T03:08:21;43.50;;;15.27;;
20531;SDS011;10424;52.102;8.084;2022-11-30T03:10:48;45.22;;;16.35;;
20531;SDS011;10424;52.102;8.084;2022-11-30T03:13:15;46.65;;;16.63;;
20531;SDS011;10424;52.102;8.084;2022-11-30T03:15:43;42.20;;;15.43;;
20531;SDS011;10424;52.102;8.084;2022-11-30T03:18:10;44.75;;;16.10;;
20531;SDS011;10424;52.102;8.084;2022-11-30T03:20:39;42.55;;;15.80;;
20531;SDS011;10424;52.102;8.084;2022-11-30T03:23:08;43.72;;;15.23;;
20531;SDS011;10424;52.102;8.084;2022-11-30T03:25:35;45.53;;;15.40;;
20531;SDS011;10424;52.102;8.084;2022-11-30T03:28:03;42.33;;;15.50;;
20531;SDS011;10424;52.102;8.084;2022-11-30T03:30:30;42.75;;;15.73;;
20531;SDS011;10424;52.102;8.084;2022-11-30T03:32:57;43.35;;;15.98;;
20531;SDS011;10424;52.102;8.084;2022-11-30T03:35:25;39.83;;;15.52;;
20531;SDS011;10424;52.102;8.084;2022-11-30T03:37:52;33.97;;;14.32;;
20531;SDS011;10424;52.102;8.084;2022-11-30T03:40:21;34.67;;;13.35;;
20531;SDS011;10424;52.102;8.084;2022-11-30T03:42:48;33.95;;;13.48;;
20531;SDS011;10424;52.102;8.084;2022-11-30T03:45:15;37.92;;;13.98;;
20531;SDS011;10424;52.102;8.084;2022-11-30T03:47:43;36.35;;;12.40;;
20531;SDS011;10424;52.102;8.084;2022-11-30T03:50:10;29.17;;;12.20;;
20531;SDS011;10424;52.102;8.084;2022-11-30T03:52:37;30.42;;;13.10;;
20531;SDS011;10424;52.102;8.084;2022-11-30T03:55:05;25.05;;;10.88;;
20531;SDS011;10424;52.102;8.084;2022-11-30T04:00:02;28.38;;;11.68;;
20531;SDS011;10424;52.102;8.084;2022-11-30T04:02:30;24.70;;;11.18;;
20531;SDS011;10424;52.102;8.084;2022-11-30T04:04:58;28.88;;;11.00;;
20531;SDS011;10424;52.102;8.084;2022-11-30T04:07:25;29.63;;;11.30;;
20531;SDS011;10424;52.102;8.084;2022-11-30T04:09:52;33.92;;;11.40;;
20531;SDS011;10424;52.102;8.084;2022-11-30T04:12:20;25.75;;;11.18;;
20531;SDS011;10424;52.102;8.084;2022-11-30T04:14:47;27.77;;;11.00;;
20531;SDS011;10424;52.102;8.084;2022-11-30T04:17:16;30.23;;;11.02;;
20531;SDS011;10424;52.102;8.084;2022-11-30T04:19:43;26.50;;;11.00;;
20531;SDS011;10424;52.102;8.084;2022-11-30T04:22:10;23.75;;;10.25;;
20531;SDS011;10424;52.102;8.084;2022-11-30T04:24:37;29.02;;;10.93;;
20531;SDS011;10424;52.102;8.084;2022-11-30T04:27:05;27.88;;;10.75;;
20531;SDS011;10424;52.102;8.084;2022-11-30T04:29:32;30.83;;;11.30;;
20531;SDS011;10424;52.102;8.084;2022-11-30T04:31:59;26.60;;;10.88;;
20531;SDS011;10424;52.102;8.084;2022-11-30T04:34:28;35.22;;;13.80;;
20531;SDS011;10424;52.102;8.084;2022-11-30T04:36:55;26.08;;;10.73;;
20531;SDS011;10424;52.102;8.084;2022-11-30T04:39:23;28.60;;;10.75;;
20531;SDS011;10424;52.102;8.084;2022-11-30T04:41:50;23.85;;;11.02;;
20531;SDS011;10424;52.102;8.084;2022-11-30T04:44:17;31.48;;;10.65;;
20531;SDS011;10424;52.102;8.084;2022-11-30T04:46:44;26.60;;;10.77;;
20531;SDS011;10424;52.102;8.084;2022-11-30T04:49:12;27.17;;;10.63;;
20531;SDS011;10424;52.102;8.084;2022-11-30T04:51:40;28.75;;;11.20;;
20531;SDS011;10424;52.102;8.084;2022-11-30T04:54:08;27.27;;;10.75;;
20531;SDS011;10424;52.102;8.084;2022-11-30T04:56:35;25.73;;;11.20;;
20531;SDS011;10424;52.102;8.084;2022-11-30T04:59:02;25.83;;;10.95;;
20531;SDS011;10424;52.102;8.084;2022-11-30T05:01:30;26.92;;;11.18;;
20531;SDS011;10424;52.102;8.084;2022-11-30T05:03:57;26.35;;;11.27;;
20531;SDS011;10424;52.102;8.084;2022-11-30T05:06:24;24.63;;;10.57;;
20531;SDS011;10424;52.102;8.084;2022-11-30T05:08:53;28.25;;;9.98;;
20531;SDS011;10424;52.102;8.084;2022-11-30T05:11:20;26.17;;;10.65;;
20531;SDS011;10424;52.102;8.084;2022-11-30T05:13:47;25.05;;;11.35;;
20531;SDS011;10424;52.102;8.084;2022-11-30T05:16:14;23.17;;;10.70;;
20531;SDS011;10424;52.102;8.084;2022-11-30T05:18:42;29.88;;;11.30;;
20531;SDS011;10424;52.102;8.084;2022-11-30T05:21:09;25.83;;;11.20;;
20531;SDS011;10424;52.102;8.084;2022-11-30T05:23:36;23.45;;;10.52;;
20531;SDS011;10424;52.102;8.084;2022-11-30T05:26:05;24.58;;;10.88;;
20531;SDS011;10424;52.102;8.084;2022-11-30T05:28:32;26.90;;;10.82;;
20531;SDS011;10424;52.102;8.084;2022-11-30T05:31:01;23.67;;;11.32;;
20531;SDS011;10424;52.102;8.084;2022-11-30T05:33:28;25.63;;;11.48;;
20531;SDS011;10424;52.102;8.084;2022-11-30T05:35:56;25.85;;;12.15;;
20531;SDS011;10424;52.102;8.084;2022-11-30T05:38:23;27.77;;;12.95;;
20531;SDS011;10424;52.102;8.084;2022-11-30T05:40:50;29.02;;;12.57;;
20531;SDS011;10424;52.102;8.084;2022-11-30T05:43:19;28.30;;;12.85;;
20531;SDS011;10424;52.102;8.084;2022-11-30T05:45:46;27.55;;;12.68;;
20531;SDS011;10424;52.102;8.084;2022-11-30T05:48:13;30.67;;;13.23;;
20531;SDS011;10424;52.102;8.084;2022-11-30T05:50:40;27.42;;;12.45;;
20531;SDS011;10424;52.102;8.084;2022-11-30T05:53:08;28.13;;;12.68;;
20531;SDS011;10424;52.102;8.084;2022-11-30T05:55:35;27.38;;;12.10;;
20531;SDS011;10424;52.102;8.084;2022-11-30T05:58:02;28.50;;;12.27;;
20531;SDS011;10424;52.102;8.084;2022-11-30T06:00:31;28.27;;;11.80;;
20531;SDS011;10424;52.102;8.084;2022-11-30T06:02:58;27.15;;;12.00;;
20531;SDS011;10424;52.102;8.084;2022-11-30T06:05:26;28.90;;;11.75;;
20531;SDS011;10424;52.102;8.084;2022-11-30T06:07:53;25.27;;;11.43;;
20531;SDS011;10424;52.102;8.084;2022-11-30T06:10:21;25.88;;;11.45;;
20531;SDS011;10424;52.102;8.084;2022-11-30T06:12:49;23.83;;;11.38;;
20531;SDS011;10424;52.102;8.084;2022-11-30T06:15:16;26.88;;;11.75;;
20531;SDS011;10424;52.102;8.084;2022-11-30T06:17:45;23.23;;;11.23;;
20531;SDS011;10424;52.102;8.084;2022-11-30T06:20:12;23.48;;;11.68;;
20531;SDS011;10424;52.102;8.084;2022-11-30T06:22:43;20.77;;;11.13;;
20531;SDS011;10424;52.102;8.084;2022-11-30T06:25:10;26.05;;;10.90;;
20531;SDS011;10424;52.102;8.084;2022-11-30T06:27:39;18.88;;;9.63;;
20531;SDS011;10424;52.102;8.084;2022-11-30T06:30:08;20.10;;;10.45;;
20531;SDS011;10424;52.102;8.084;2022-11-30T06:32:35;20.33;;;10.63;;
20531;SDS011;10424;52.102;8.084;2022-11-30T06:35:04;20.55;;;10.05;;
20531;SDS011;10424;52.102;8.084;2022-11-30T06:37:32;20.90;;;10.30;;
20531;SDS011;10424;52.102;8.084;2022-11-30T06:40:00;21.10;;;10.90;;
20531;SDS011;10424;52.102;8.084;2022-11-30T06:42:27;21.58;;;10.98;;
20531;SDS011;10424;52.102;8.084;2022-11-30T06:44:55;21.63;;;11.23;;
20531;SDS011;10424;52.102;8.084;2022-11-30T06:47:22;21.08;;;10.88;;
20531;SDS011;10424;52.102;8.084;2022-11-30T06:49:49;22.23;;;11.38;;
20531;SDS011;10424;52.102;8.084;2022-11-30T06:52:18;23.88;;;11.32;;
20531;SDS011;10424;52.102;8.084;2022-11-30T06:54:45;22.63;;;11.55;;
20531;SDS011;10424;52.102;8.084;2022-11-30T06:57:12;23.15;;;11.35;;
20531;SDS011;10424;52.102;8.084;2022-11-30T06:59:40;23.33;;;12.15;;
20531;SDS011;10424;52.102;8.084;2022-11-30T07:02:08;26.25;;;12.88;;
20531;SDS011;10424;52.102;8.084;2022-11-30T07:04:35;19.80;;;11.15;;
20531;SDS011;10424;52.102;8.084;2022-11-30T07:07:03;21.40;;;11.10;;
20531;SDS011;10424;52.102;8.084;2022-11-30T07:09:33;18.27;;;10.68;;
20531;SDS011;10424;52.102;8.084;2022-11-30T07:12:00;23.00;;;11.93;;
20531;SDS011;10424;52.102;8.084;2022-11-30T07:14:27;18.17;;;10.98;;
20531;SDS011;10424;52.102;8.084;2022-11-30T07:16:55;22.17;;;11.43;;
20531;SDS011;10424;52.102;8.084;2022-11-30T07:19:22;20.27;;;10.98;;
20531;SDS011;10424;52.102;8.084;2022-11-30T07:21:50;18.85;;;10.07;;
20531;SDS011;10424;52.102;8.084;2022-11-30T07:24:17;16.88;;;9.23;;
20531;SDS011;10424;52.102;8.084;2022-11-30T07:27:03;15.40;;;8.77;;
20531;SDS011;10424;52.102;8.084;2022-11-30T07:29:30;17.77;;;9.35;;
20531;SDS011;10424;52.102;8.084;2022-11-30T07:31:58;16.05;;;8.82;;
20531;SDS011;10424;52.102;8.084;2022-11-30T07:34:25;18.73;;;9.13;;
20531;SDS011;10424;52.102;8.084;2022-11-30T07:36:52;13.68;;;8.13;;
20531;SDS011;10424;52.102;8.084;2022-11-30T07:39:19;14.25;;;8.63;;
20531;SDS011;10424;52.102;8.084;2022-11-30T07:41:48;16.23;;;8.38;;
20531;SDS011;10424;52.102;8.084;2022-11-30T07:44:17;15.73;;;8.75;;
20531;SDS011;10424;52.102;8.084;2022-11-30T07:46:44;16.33;;;8.85;;
20531;SDS011;10424;52.102;8.084;2022-11-30T07:49:11;15.07;;;8.65;;
20531;SDS011;10424;52.102;8.084;2022-11-30T07:51:38;16.00;;;8.93;;
20531;SDS011;10424;52.102;8.084;2022-11-30T07:54:06;15.70;;;8.40;;
20531;SDS011;10424;52.102;8.084;2022-11-30T07:56:33;18.20;;;8.52;;
20531;SDS011;10424;52.102;8.084;2022-11-30T07:59:00;16.38;;;9.00;;
20531;SDS011;10424;52.102;8.084;2022-11-30T08:01:29;20.33;;;9.93;;
20531;SDS011;10424;52.102;8.084;2022-11-30T08:03:57;19.73;;;10.40;;
20531;SDS011;10424;52.102;8.084;2022-11-30T08:06:25;24.42;;;11.50;;
20531;SDS011;10424;52.102;8.084;2022-11-30T08:08:53;26.67;;;12.02;;
20531;SDS011;10424;52.102;8.084;2022-11-30T08:11:21;24.75;;;12.98;;
20531;SDS011;10424;52.102;8.084;2022-11-30T08:13:49;23.17;;;11.93;;
20531;SDS011;10424;52.102;8.084;2022-11-30T08:16:17;22.70;;;10.93;;
20531;SDS011;10424;52.102;8.084;2022-11-30T08:18:47;24.95;;;14.55;;
20531;SDS011;10424;52.102;8.084;2022-11-30T08:21:16;30.70;;;18.48;;
20531;SDS011;10424;52.102;8.084;2022-11-30T08:23:44;26.77;;;15.25;;
20531;SDS011;10424;52.102;8.084;2022-11-30T08:26:12;20.50;;;12.23;;
20531;SDS011;10424;52.102;8.084;2022-11-30T08:28:39;16.67;;;9.48;;
20531;SDS011;10424;52.102;8.084;2022-11-30T08:31:07;16.58;;;10.15;;
20531;SDS011;10424;52.102;8.084;2022-11-30T08:33:35;18.38;;;10.65;;
20531;SDS011;10424;52.102;8.084;2022-11-30T08:36:08;17.98;;;10.38;;
20531;SDS011;10424;52.102;8.084;2022-11-30T08:38:36;21.00;;;12.02;;
20531;SDS011;10424;52.102;8.084;2022-11-30T08:41:04;20.55;;;10.95;;
20531;SDS011;10424;52.102;8.084;2022-11-30T08:43:32;18.27;;;10.68;;
20531;SDS011;10424;52.102;8.084;2022-11-30T08:46:00;20.08;;;10.90;;
20531;SDS011;10424;52.102;8.084;2022-11-30T08:48:28;21.58;;;11.15;;
20531;SDS011;10424;52.102;8.084;2022-11-30T08:50:57;20.80;;;11.35;;
20531;SDS011;10424;52.102;8.084;2022-11-30T08:53:26;21.63;;;11.23;;
20531;SDS011;10424;52.102;8.084;2022-11-30T08:55:54;26.95;;;13.27;;
20531;SDS011;10424;52.102;8.084;2022-11-30T08:58:21;28.42;;;13.10;;
20531;SDS011;10424;52.102;8.084;2022-11-30T09:00:49;35.63;;;17.27;;
20531;SDS011;10424;52.102;8.084;2022-11-30T09:03:16;42.78;;;19.52;;
20531;SDS011;10424;52.102;8.084;2022-11-30T09:05:43;28.60;;;14.57;;
20531;SDS011;10424;52.102;8.084;2022-11-30T09:08:11;42.13;;;20.23;;
20531;SDS011;10424;52.102;8.084;2022-11-30T09:10:40;34.50;;;18.48;;
20531;SDS011;10424;52.102;8.084;2022-11-30T09:13:07;36.90;;;18.55;;
20531;SDS011;10424;52.102;8.084;2022-11-30T09:15:34;34.80;;;19.98;;
20531;SDS011;10424;52.102;8.084;2022-11-30T09:18:01;32.28;;;18.80;;
20531;SDS011;10424;52.102;8.084;2022-11-30T09:20:29;29.10;;;16.27;;
20531;SDS011;10424;52.102;8.084;2022-11-30T09:22:57;27.50;;;15.02;;
20531;SDS011;10424;52.102;8.084;2022-11-30T09:25:26;28.13;;;15.13;;
20531;SDS011;10424;52.102;8.084;2022-11-30T09:27:55;32.88;;;16.73;;
20531;SDS011;10424;52.102;8.084;2022-11-30T09:30:22;27.30;;;13.65;;
20531;SDS011;10424;52.102;8.084;2022-11-30T09:32:49;26.33;;;13.82;;
20531;SDS011;10424;52.102;8.084;2022-11-30T09:35:17;27.30;;;14.63;;
20531;SDS011;10424;52.102;8.084;2022-11-30T09:37:44;24.05;;;12.40;;
20531;SDS011;10424;52.102;8.084;2022-11-30T09:40:11;23.55;;;13.20;;
20531;SDS011;10424;52.102;8.084;2022-11-30T09:42:43;27.15;;;14.27;;
20531;SDS011;10424;52.102;8.084;2022-11-30T09:45:16;22.45;;;12.63;;
20531;SDS011;10424;52.102;8.084;2022-11-30T09:50:30;22.58;;;12.32;;
20531;SDS011;10424;52.102;8.084;2022-11-30T09:53:01;22.95;;;12.27;;
20531;SDS011;10424;52.102;8.084;2022-11-30T09:55:30;20.77;;;11.30;;
20531;SDS011;10424;52.102;8.084;2022-11-30T09:57:59;18.77;;;9.80;;
20531;SDS011;10424;52.102;8.084;2022-11-30T10:00:28;16.15;;;9.27;;
20531;SDS011;10424;52.102;8.084;2022-11-30T10:02:56;16.35;;;9.32;;
20531;SDS011;10424;52.102;8.084;2022-11-30T10:05:25;16.90;;;8.93;;
20531;SDS011;10424;52.102;8.084;2022-11-30T10:08:03;13.77;;;8.43;;
20531;SDS011;10424;52.102;8.084;2022-11-30T10:10:36;15.05;;;9.10;;
20531;SDS011;10424;52.102;8.084;2022-11-30T10:13:08;14.70;;;9.18;;
20531;SDS011;10424;52.102;8.084;2022-11-30T10:15:42;16.52;;;10.18;;
20531;SDS011;10424;52.102;8.084;2022-11-30T10:18:14;15.18;;;9.23;;
20531;SDS011;10424;52.102;8.084;2022-11-30T10:20:52;14.93;;;9.00;;
20531;SDS011;10424;52.102;8.084;2022-11-30T10:23:24;15.27;;;9.18;;
20531;SDS011;10424;52.102;8.084;2022-11-30T10:25:56;13.90;;;8.65;;
20531;SDS011;10424;52.102;8.084;2022-11-30T10:28:26;15.15;;;9.00;;
20531;SDS011;10424;52.102;8.084;2022-11-30T10:30:59;14.20;;;9.02;;
20531;SDS011;10424;52.102;8.084;2022-11-30T10:33:29;15.13;;;8.98;;
20531;SDS011;10424;52.102;8.084;2022-11-30T10:35:59;16.10;;;9.82;;
20531;SDS011;10424;52.102;8.084;2022-11-30T10:38:29;13.35;;;9.00;;
20531;SDS011;10424;52.102;8.084;2022-11-30T10:41:00;12.30;;;8.27;;
20531;SDS011;10424;52.102;8.084;2022-11-30T10:43:28;12.75;;;7.80;;
20531;SDS011;10424;52.102;8.084;2022-11-30T10:45:57;14.50;;;8.32;;
20531;SDS011;10424;52.102;8.084;2022-11-30T10:48:28;12.75;;;8.02;;
20531;SDS011;10424;52.102;8.084;2022-11-30T10:51:00;13.70;;;8.20;;
20531;SDS011;10424;52.102;8.084;2022-11-30T10:53:28;13.48;;;8.55;;
20531;SDS011;10424;52.102;8.084;2022-11-30T10:55:57;13.23;;;8.27;;
20531;SDS011;10424;52.102;8.084;2022-11-30T10:58:27;14.52;;;8.90;;
20531;SDS011;10424;52.102;8.084;2022-11-30T11:00:58;13.70;;;8.60;;
20531;SDS011;10424;52.102;8.084;2022-11-30T11:03:28;13.50;;;8.70;;
20531;SDS011;10424;52.102;8.084;2022-11-30T11:06:06;14.88;;;9.00;;
20531;SDS011;10424;52.102;8.084;2022-11-30T11:08:33;15.20;;;9.60;;
20531;SDS011;10424;52.102;8.084;2022-11-30T11:11:01;18.30;;;10.30;;
20531;SDS011;10424;52.102;8.084;2022-11-30T11:13:36;19.75;;;11.30;;
20531;SDS011;10424;52.102;8.084;2022-11-30T11:16:04;18.65;;;11.38;;
20531;SDS011;10424;52.102;8.084;2022-11-30T11:18:33;19.73;;;11.25;;
20531;SDS011;10424;52.102;8.084;2022-11-30T11:21:02;20.63;;;11.02;;
20531;SDS011;10424;52.102;8.084;2022-11-30T11:23:31;18.58;;;10.55;;
20531;SDS011;10424;52.102;8.084;2022-11-30T11:25:59;17.23;;;10.13;;
20531;SDS011;10424;52.102;8.084;2022-11-30T11:28:27;16.15;;;9.20;;
20531;SDS011;10424;52.102;8.084;2022-11-30T11:30:55;15.73;;;10.00;;
20531;SDS011;10424;52.102;8.084;2022-11-30T11:33:24;18.70;;;10.98;;
20531;SDS011;10424;52.102;8.084;2022-11-30T11:35:54;26.40;;;16.58;;
20531;SDS011;10424;52.102;8.084;2022-11-30T11:38:23;25.75;;;16.38;;
20531;SDS011;10424;52.102;8.084;2022-11-30T11:40:52;19.98;;;12.00;;
20531;SDS011;10424;52.102;8.084;2022-11-30T11:43:20;17.50;;;10.48;;
20531;SDS011;10424;52.102;8.084;2022-11-30T11:45:51;19.75;;;12.43;;
20531;SDS011;10424;52.102;8.084;2022-11-30T11:48:26;24.02;;;15.52;;
20531;SDS011;10424;52.102;8.084;2022-11-30T11:50:57;19.05;;;11.48;;
20531;SDS011;10424;52.102;8.084;2022-11-30T11:53:33;17.90;;;11.50;;
20531;SDS011;10424;52.102;8.084;2022-11-30T11:56:04;18.75;;;11.50;;
20531;SDS011;10424;52.102;8.084;2022-11-30T11:58:37;20.52;;;12.10;;
20531;SDS011;10424;52.102;8.084;2022-11-30T12:01:09;28.45;;;16.95;;
20531;SDS011;10424;52.102;8.084;2022-11-30T12:03:37;33.15;;;23.00;;
20531;SDS011;10424;52.102;8.084;2022-11-30T12:06:10;19.58;;;12.43;;
20531;SDS011;10424;52.102;8.084;2022-11-30T12:08:40;21.55;;;12.80;;
20531;SDS011;10424;52.102;8.084;2022-11-30T12:11:12;29.70;;;17.27;;
20531;SDS011;10424;52.102;8.084;2022-11-30T12:13:42;29.40;;;17.35;;
20531;SDS011;10424;52.102;8.084;2022-11-30T12:16:16;23.20;;;13.43;;
20531;SDS011;10424;52.102;8.084;2022-11-30T12:18:48;19.02;;;11.50;;
20531;SDS011;10424;52.102;8.084;2022-11-30T12:21:22;23.38;;;13.05;;
20531;SDS011;10424;52.102;8.084;2022-11-30T12:23:54;22.10;;;12.10;;
20531;SDS011;10424;52.102;8.084;2022-11-30T12:26:27;19.83;;;12.02;;
20531;SDS011;10424;52.102;8.084;2022-11-30T12:29:04;20.92;;;12.20;;
20531;SDS011;10424;52.102;8.084;2022-11-30T12:31:40;20.80;;;11.85;;
20531;SDS011;10424;52.102;8.084;2022-11-30T12:34:12;23.30;;;12.52;;
20531;SDS011;10424;52.102;8.084;2022-11-30T12:36:47;23.27;;;12.30;;
20531;SDS011;10424;52.102;8.084;2022-11-30T12:39:18;22.10;;;12.25;;
20531;SDS011;10424;52.102;8.084;2022-11-30T12:41:49;23.65;;;12.50;;
20531;SDS011;10424;52.102;8.084;2022-11-30T12:47:02;24.80;;;14.32;;
20531;SDS011;10424;52.102;8.084;2022-11-30T12:49:34;23.52;;;13.73;;
20531;SDS011;10424;52.102;8.084;2022-11-30T12:52:09;30.05;;;15.73;;
20531;SDS011;10424;52.102;8.084;2022-11-30T12:54:39;27.75;;;15.73;;
20531;SDS011;10424;52.102;8.084;2022-11-30T12:57:09;28.40;;;15.43;;
20531;SDS011;10424;52.102;8.084;2022-11-30T12:59:40;36.35;;;19.30;;
20531;SDS011;10424;52.102;8.084;2022-11-30T13:02:15;32.15;;;15.15;;
20531;SDS011;10424;52.102;8.084;2022-11-30T13:04:49;28.83;;;15.30;;
20531;SDS011;10424;52.102;8.084;2022-11-30T13:07:21;30.80;;;15.15;;
20531;SDS011;10424;52.102;8.084;2022-11-30T13:09:50;33.75;;;15.63;;
20531;SDS011;10424;52.102;8.084;2022-11-30T13:12:20;32.38;;;16.17;;
20531;SDS011;10424;52.102;8.084;2022-11-30T13:14:50;36.22;;;16.65;;
20531;SDS011;10424;52.102;8.084;2022-11-30T13:17:20;36.05;;;16.52;;
20531;SDS011;10424;52.102;8.084;2022-11-30T13:19:51;35.80;;;16.17;;
20531;SDS011;10424;52.102;8.084;2022-11-30T13:22:23;39.10;;;17.48;;
20531;SDS011;10424;52.102;8.084;2022-11-30T13:24:56;38.17;;;18.20;;
20531;SDS011;10424;52.102;8.084;2022-11-30T13:27:26;40.55;;;18.30;;
20531;SDS011;10424;52.102;8.084;2022-11-30T13:30:01;42.90;;;18.17;;
20531;SDS011;10424;52.102;8.084;2022-11-30T13:32:32;42.60;;;18.55;;
20531;SDS011;10424;52.102;8.084;2022-11-30T13:37:46;39.97;;;16.65;;
20531;SDS011;10424;52.102;8.084;2022-11-30T13:40:26;38.63;;;17.48;;
20531;SDS011;10424;52.102;8.084;2022-11-30T13:42:53;38.67;;;17.20;;
20531;SDS011;10424;52.102;8.084;2022-11-30T13:45:26;42.92;;;17.63;;
20531;SDS011;10424;52.102;8.084;2022-11-30T13:47:53;40.05;;;17.65;;
20531;SDS011;10424;52.102;8.084;2022-11-30T13:50:25;43.03;;;18.75;;
20531;SDS011;10424;52.102;8.084;2022-11-30T13:56:00;42.42;;;17.30;;
20531;SDS011;10424;52.102;8.084;2022-11-30T13:58:28;45.75;;;18.38;;
20531;SDS011;10424;52.102;8.084;2022-11-30T14:01:00;43.17;;;17.60;;
20531;SDS011;10424;52.102;8.084;2022-11-30T14:03:27;39.28;;;17.05;;
20531;SDS011;10424;52.102;8.084;2022-11-30T14:05:55;36.33;;;15.07;;
20531;SDS011;10424;52.102;8.084;2022-11-30T14:08:33;39.45;;;15.68;;
20531;SDS011;10424;52.102;8.084;2022-11-30T14:13:48;39.80;;;15.95;;
20531;SDS011;10424;52.102;8.084;2022-11-30T14:16:19;37.00;;;15.95;;
20531;SDS011;10424;52.102;8.084;2022-11-30T14:18:47;40.88;;;16.40;;
20531;SDS011;10424;52.102;8.084;2022-11-30T14:21:25;36.95;;;15.95;;
20531;SDS011;10424;52.102;8.084;2022-11-30T14:23:56;35.13;;;15.20;;
20531;SDS011;10424;52.102;8.084;2022-11-30T14:26:27;41.65;;;16.35;;
20531;SDS011;10424;52.102;8.084;2022-11-30T14:28:59;41.05;;;16.52;;
20531;SDS011;10424;52.102;8.084;2022-11-30T14:31:29;40.55;;;16.27;;
20531;SDS011;10424;52.102;8.084;2022-11-30T14:33:59;37.47;;;15.52;;
20531;SDS011;10424;52.102;8.084;2022-11-30T14:36:31;33.85;;;13.98;;
20531;SDS011;10424;52.102;8.084;2022-11-30T14:38:59;35.33;;;14.88;;
20531;SDS011;10424;52.102;8.084;2022-11-30T14:41:27;61.47;;;28.58;;
20531;SDS011;10424;52.102;8.084;2022-11-30T14:44:04;70.40;;;33.95;;
20531;SDS011;10424;52.102;8.084;2022-11-30T14:46:32;38.25;;;16.58;;
20531;SDS011;10424;52.102;8.084;2022-11-30T14:49:10;37.63;;;16.63;;
20531;SDS011;10424;52.102;8.084;2022-11-30T14:51:39;41.08;;;17.08;;
20531;SDS011;10424;52.102;8.084;2022-11-30T14:54:10;38.75;;;17.08;;
20531;SDS011;10424;52.102;8.084;2022-11-30T14:56:39;46.30;;;21.92;;